Wetterdaten: Woche 14.09.15 - 20.09.15 (KW38)
Datum Zeit Temp. A. Feuchte A. Luftdruck Regen Wind Richtung Taupunkt Windchill Windben
14.09.2015 00:00 19,0 C 72 % 1010,3 hPa 0,0 l/m 1,7 km/h N 13,7 C 19,0 C 8,5 km/h
14.09.2015 01:00 18,8 C 71 % 1009,7 hPa 0,0 l/m 1,8 km/h N 13,4 C 18,8 C 11,7 km/h
14.09.2015 02:00 18,1 C 73 % 1009,1 hPa 0,0 l/m 0,8 km/h N 13,3 C 18,1 C 8,0 km/h
14.09.2015 03:00 17,6 C 75 % 1008,5 hPa 0,0 l/m 1,6 km/h N 13,1 C 17,6 C 10,9 km/h
14.09.2015 04:00 17,0 C 75 % 1008,1 hPa 0,0 l/m 0,2 km/h N 12,6 C 17,0 C 4,0 km/h
14.09.2015 05:00 16,4 C 77 % 1007,6 hPa 0,0 l/m 0,4 km/h N 12,3 C 16,4 C 5,6 km/h
14.09.2015 06:00 15,8 C 78 % 1007,4 hPa 0,0 l/m 0,1 km/h N 12,0 C 15,8 C 2,4 km/h
14.09.2015 07:00 16,9 C 76 % 1007,2 hPa 0,0 l/m 0,7 km/h N 12,7 C 16,9 C 6,4 km/h
14.09.2015 08:00 19,3 C 69 % 1006,9 hPa 0,0 l/m 1,7 km/h N 13,4 C 19,3 C 9,6 km/h
14.09.2015 09:00 21,6 C 61 % 1007,3 hPa 0,0 l/m 5,0 km/h N 13,8 C 21,5 C 17,7 km/h
14.09.2015 10:00 22,3 C 57 % 1007,5 hPa 0,0 l/m 5,1 km/h N 13,5 C 22,2 C 17,2 km/h
14.09.2015 11:00 22,4 C 55 % 1007,6 hPa 0,0 l/m 7,4 km/h N 13,0 C 22,1 C 20,1 km/h
14.09.2015 12:00 21,8 C 59 % 1007,9 hPa 0,0 l/m 6,0 km/h N 13,4 C 21,7 C 18,1 km/h
14.09.2015 13:00 20,2 C 70 % 1007,7 hPa 0,3 l/m 2,3 km/h N 14,5 C 20,2 C 10,5 km/h
14.09.2015 14:00 21,1 C 66 % 1007,6 hPa 0,0 l/m 0,6 km/h N 14,5 C 21,1 C 7,2 km/h
14.09.2015 15:00 21,8 C 62 % 1007,7 hPa 0,0 l/m 1,2 km/h N 14,2 C 21,8 C 9,3 km/h
14.09.2015 16:00 21,9 C 66 % 1007,7 hPa 0,0 l/m 0,2 km/h N 15,2 C 21,9 C 3,6 km/h
14.09.2015 17:00 20,5 C 71 % 1007,8 hPa 0,3 l/m 3,5 km/h N 15,1 C 20,5 C 10,0 km/h
14.09.2015 18:00 20,0 C 73 % 1008,6 hPa 0,0 l/m 2,6 km/h N 15,0 C 19,9 C 11,7 km/h
14.09.2015 19:00 18,3 C 76 % 1009,9 hPa 0,8 l/m 1,9 km/h N 14,0 C 18,3 C 14,5 km/h
14.09.2015 20:00 17,5 C 73 % 1010,1 hPa 0,0 l/m 4,4 km/h N 12,6 C 17,4 C 17,7 km/h
14.09.2015 21:00 16,8 C 76 % 1010,0 hPa 0,0 l/m 0,3 km/h N 12,4 C 16,8 C 4,4 km/h
14.09.2015 22:00 16,2 C 78 % 1010,2 hPa 0,0 l/m 0,1 km/h N 12,4 C 16,2 C 1,2 km/h
14.09.2015 23:00 15,4 C 80 % 1010,7 hPa 0,0 l/m 0,0 km/h N 11,9 C 15,4 C 0,4 km/h
15.09.2015 00:00 13,9 C 81 % 1010,8 hPa 0,0 l/m 0,2 km/h N 10,7 C 13,9 C 1,6 km/h
15.09.2015 01:00 13,1 C 82 % 1011,1 hPa 0,0 l/m 0,1 km/h N 10,1 C 13,1 C 0,8 km/h
15.09.2015 02:00 13,0 C 82 % 1011,5 hPa 0,0 l/m 0,2 km/h N 9,9 C 13,0 C 1,6 km/h
15.09.2015 03:00 13,6 C 81 % 1011,7 hPa 0,0 l/m 0,6 km/h N 10,4 C 13,6 C 2,8 km/h
15.09.2015 04:00 13,8 C 81 % 1011,7 hPa 0,0 l/m 0,0 km/h N 10,6 C 13,8 C 0,4 km/h
15.09.2015 05:00 13,7 C 81 % 1011,6 hPa 0,0 l/m 0,8 km/h N 10,5 C 13,7 C 6,4 km/h
15.09.2015 06:00 14,7 C 82 % 1012,0 hPa 0,0 l/m 2,3 km/h N 11,6 C 14,7 C 8,5 km/h
15.09.2015 07:00 15,5 C 79 % 1012,4 hPa 0,0 l/m 1,0 km/h N 11,9 C 15,5 C 6,0 km/h
15.09.2015 08:00 17,0 C 76 % 1012,5 hPa 0,0 l/m 0,1 km/h N 12,7 C 17,0 C 2,0 km/h
15.09.2015 09:00 17,8 C 75 % 1012,8 hPa 0,0 l/m 0,3 km/h N 13,3 C 17,8 C 2,8 km/h
15.09.2015 10:00 18,5 C 74 % 1012,4 hPa 0,0 l/m 1,1 km/h N 13,8 C 18,5 C 6,8 km/h
15.09.2015 11:00 19,1 C 72 % 1012,0 hPa 0,0 l/m 0,7 km/h N 13,8 C 19,1 C 7,2 km/h
15.09.2015 12:00 19,7 C 71 % 1011,5 hPa 0,0 l/m 1,0 km/h N 14,2 C 19,7 C 7,2 km/h
15.09.2015 13:00 20,9 C 66 % 1011,0 hPa 0,0 l/m 1,6 km/h N 14,4 C 20,9 C 10,1 km/h
15.09.2015 14:00 20,4 C 71 % 1010,7 hPa 0,0 l/m 1,9 km/h N 15,0 C 20,4 C 12,1 km/h
15.09.2015 15:00 20,3 C 72 % 1010,0 hPa 0,0 l/m 3,5 km/h N 15,1 C 20,3 C 13,7 km/h
15.09.2015 16:00 20,3 C 74 % 1009,3 hPa 0,0 l/m 2,4 km/h N 15,6 C 20,3 C 14,1 km/h
15.09.2015 17:00 20,3 C 76 % 1008,7 hPa 0,0 l/m 0,8 km/h N 16,0 C 20,3 C 7,6 km/h
15.09.2015 18:00 19,7 C 78 % 1008,3 hPa 0,0 l/m 0,0 km/h N 15,7 C 19,7 C 0,0 km/h
15.09.2015 19:00 19,3 C 80 % 1008,2 hPa 0,0 l/m 1,0 km/h N 15,7 C 19,3 C 6,0 km/h
15.09.2015 20:00 19,5 C 79 % 1008,3 hPa 0,0 l/m 0,6 km/h N 15,8 C 19,5 C 4,4 km/h
15.09.2015 21:00 19,0 C 80 % 1008,1 hPa 0,0 l/m 0,0 km/h N 15,4 C 19,0 C 0,0 km/h
15.09.2015 22:00 18,7 C 81 % 1008,3 hPa 0,0 l/m 1,4 km/h N 15,3 C 18,7 C 6,0 km/h
15.09.2015 23:00 18,8 C 79 % 1008,4 hPa 0,0 l/m 1,0 km/h N 15,0 C 18,8 C 6,0 km/h
16.09.2015 00:00 18,1 C 79 % 1008,2 hPa 0,0 l/m 0,0 km/h N 14,4 C 18,1 C 1,6 km/h
16.09.2015 01:00 17,0 C 80 % 1007,9 hPa 0,0 l/m 0,2 km/h N 13,5 C 17,0 C 2,0 km/h
16.09.2015 02:00 16,5 C 79 % 1007,9 hPa 0,0 l/m 0,3 km/h N 12,8 C 16,5 C 1,6 km/h
16.09.2015 03:00 15,0 C 81 % 1007,9 hPa 0,0 l/m 0,0 km/h N 11,6 C 15,0 C 0,0 km/h
16.09.2015 04:00 13,8 C 82 % 1007,4 hPa 0,0 l/m 0,0 km/h N 10,8 C 13,8 C 0,0 km/h
16.09.2015 05:00 12,9 C 82 % 1006,8 hPa 0,0 l/m 0,0 km/h N 9,9 C 12,9 C 0,0 km/h
16.09.2015 06:00 12,2 C 82 % 1006,4 hPa 0,0 l/m 0,0 km/h N 9,2 C 12,2 C 0,0 km/h
16.09.2015 07:00 12,1 C 82 % 1005,8 hPa 0,0 l/m 0,0 km/h N 9,1 C 12,1 C 0,0 km/h
16.09.2015 08:00 13,8 C 80 % 1005,5 hPa 0,0 l/m 0,0 km/h N 10,4 C 13,8 C 0,0 km/h
16.09.2015 09:00 16,3 C 79 % 1005,4 hPa 0,0 l/m 0,3 km/h N 12,6 C 16,3 C 2,4 km/h
16.09.2015 10:00 21,3 C 72 % 1005,0 hPa 0,0 l/m 0,5 km/h N 15,9 C 21,3 C 6,0 km/h
16.09.2015 11:00 24,0 C 62 % 1004,7 hPa 0,0 l/m 0,2 km/h N 16,2 C 24,0 C 3,6 km/h
16.09.2015 12:00 25,8 C 56 % 1004,0 hPa 0,0 l/m 1,5 km/h N 16,2 C 25,8 C 9,3 km/h
16.09.2015 13:00 27,2 C 49 % 1003,5 hPa 0,0 l/m 4,1 km/h N 15,6 C 27,2 C 18,1 km/h
16.09.2015 14:00 28,0 C 48 % 1003,0 hPa 0,0 l/m 7,6 km/h N 15,8 C 27,8 C 26,5 km/h
16.09.2015 15:00 27,9 C 49 % 1002,5 hPa 0,0 l/m 6,1 km/h N 16,3 C 27,9 C 21,3 km/h
16.09.2015 16:00 27,7 C 50 % 1002,1 hPa 0,0 l/m 4,8 km/h N 16,2 C 27,7 C 16,9 km/h
16.09.2015 17:00 27,5 C 50 % 1002,1 hPa 0,0 l/m 3,2 km/h N 16,1 C 27,5 C 15,3 km/h
16.09.2015 18:00 26,7 C 53 % 1002,2 hPa 0,0 l/m 2,0 km/h N 16,1 C 26,7 C 10,5 km/h
16.09.2015 19:00 25,0 C 58 % 1001,9 hPa 0,0 l/m 0,6 km/h N 16,2 C 25,0 C 8,4 km/h
16.09.2015 20:00 23,4 C 64 % 1002,0 hPa 0,0 l/m 0,5 km/h N 16,1 C 23,4 C 3,2 km/h
16.09.2015 21:00 20,6 C 72 % 1002,1 hPa 0,0 l/m 0,0 km/h N 15,3 C 20,6 C 0,0 km/h
16.09.2015 22:00 18,7 C 77 % 1002,2 hPa 0,0 l/m 0,3 km/h N 14,5 C 18,7 C 2,8 km/h
16.09.2015 23:00 17,1 C 79 % 1002,2 hPa 0,0 l/m 0,0 km/h N 13,4 C 17,1 C 0,0 km/h
17.09.2015 00:00 16,0 C 81 % 1002,3 hPa 0,0 l/m 0,0 km/h N 12,8 C 16,0 C 0,4 km/h
17.09.2015 01:00 15,1 C 82 % 1002,2 hPa 0,0 l/m 0,0 km/h N 12,0 C 15,1 C 0,0 km/h
17.09.2015 02:00 14,8 C 82 % 1002,3 hPa 0,0 l/m 0,0 km/h N 11,7 C 14,8 C 0,4 km/h
17.09.2015 03:00 14,7 C 82 % 1002,3 hPa 0,0 l/m 0,1 km/h N 11,6 C 14,7 C 2,0 km/h
17.09.2015 04:00 14,3 C 82 % 1002,2 hPa 0,0 l/m 0,3 km/h N 11,3 C 14,3 C 3,2 km/h
17.09.2015 05:00 13,8 C 82 % 1002,4 hPa 0,0 l/m 0,2 km/h N 10,8 C 13,8 C 1,2 km/h
17.09.2015 06:00 13,3 C 82 % 1002,6 hPa 0,0 l/m 0,1 km/h N 10,3 C 13,3 C 1,6 km/h
17.09.2015 07:00 14,0 C 82 % 1003,0 hPa 0,0 l/m 0,2 km/h N 11,0 C 14,0 C 2,0 km/h
17.09.2015 08:00 16,2 C 82 % 1002,9 hPa 0,0 l/m 0,3 km/h N 13,1 C 16,2 C 2,0 km/h
17.09.2015 09:00 20,2 C 74 % 1003,0 hPa 0,0 l/m 0,3 km/h N 15,4 C 20,2 C 3,2 km/h
17.09.2015 10:00 23,2 C 67 % 1002,9 hPa 0,0 l/m 0,0 km/h N 16,6 C 23,2 C 0,8 km/h
17.09.2015 11:00 24,8 C 63 % 1002,6 hPa 0,0 l/m 0,3 km/h N 17,2 C 24,8 C 2,4 km/h
17.09.2015 12:00 28,0 C 50 % 1002,0 hPa 0,0 l/m 0,6 km/h N 16,5 C 28,0 C 6,0 km/h
17.09.2015 13:00 31,6 C 40 % 1001,6 hPa 0,0 l/m 0,4 km/h N 16,3 C 31,6 C 5,2 km/h
17.09.2015 14:00 33,1 C 37 % 1001,1 hPa 0,0 l/m 1,0 km/h N 16,3 C 33,1 C 8,4 km/h
17.09.2015 15:00 34,0 C 33 % 1001,7 hPa 0,0 l/m 7,0 km/h N 15,2 C 34,0 C 23,7 km/h
17.09.2015 16:00 30,4 C 43 % 1002,2 hPa 0,0 l/m 7,0 km/h N 16,2 C 30,3 C 20,9 km/h
17.09.2015 17:00 29,5 C 47 % 1002,2 hPa 0,0 l/m 5,5 km/h N 16,8 C 29,5 C 19,3 km/h
17.09.2015 18:00 28,9 C 51 % 1002,5 hPa 0,0 l/m 3,8 km/h N 17,6 C 28,9 C 16,5 km/h
17.09.2015 19:00 28,1 C 53 % 1002,9 hPa 0,0 l/m 3,3 km/h N 17,5 C 28,1 C 14,9 km/h
17.09.2015 20:00 25,8 C 50 % 1006,2 hPa 0,0 l/m 5,2 km/h N 14,5 C 25,8 C 24,5 km/h
17.09.2015 21:00 22,4 C 51 % 1008,6 hPa 0,0 l/m 8,9 km/h N 11,7 C 21,6 C 32,6 km/h
17.09.2015 22:00 20,8 C 51 % 1010,7 hPa 0,0 l/m 12,4 km/h N 10,3 C 19,0 C 36,6 km/h
17.09.2015 23:00 19,8 C 53 % 1011,8 hPa 0,0 l/m 5,7 km/h N 10,0 C 19,5 C 25,4 km/h
18.09.2015 00:00 19,3 C 55 % 1012,2 hPa 0,0 l/m 4,7 km/h N 9,9 C 19,3 C 21,3 km/h
18.09.2015 01:00 18,8 C 56 % 1012,3 hPa 0,0 l/m 2,3 km/h N 9,8 C 18,8 C 14,5 km/h
18.09.2015 02:00 17,9 C 59 % 1012,6 hPa 0,0 l/m 1,1 km/h N 9,7 C 17,9 C 8,0 km/h
18.09.2015 03:00 17,1 C 62 % 1013,6 hPa 0,0 l/m 3,5 km/h N 9,7 C 17,1 C 11,3 km/h
18.09.2015 04:00 16,8 C 63 % 1014,2 hPa 0,0 l/m 1,7 km/h N 9,7 C 16,8 C 10,5 km/h
18.09.2015 05:00 15,6 C 67 % 1014,7 hPa 0,0 l/m 0,0 km/h N 9,5 C 15,6 C 0,8 km/h
18.09.2015 06:00 13,9 C 74 % 1015,0 hPa 0,0 l/m 0,0 km/h N 9,3 C 13,9 C 0,0 km/h
18.09.2015 07:00 13,1 C 78 % 1015,4 hPa 0,0 l/m 0,0 km/h N 9,4 C 13,1 C 0,0 km/h
18.09.2015 08:00 14,5 C 79 % 1015,8 hPa 0,0 l/m 0,0 km/h N 10,8 C 14,5 C 0,4 km/h
18.09.2015 09:00 17,7 C 67 % 1016,3 hPa 0,0 l/m 1,1 km/h N 11,5 C 17,7 C 4,8 km/h
18.09.2015 10:00 20,4 C 56 % 1016,4 hPa 0,0 l/m 2,6 km/h N 11,4 C 20,4 C 8,4 km/h
18.09.2015 11:00 21,5 C 51 % 1016,3 hPa 0,0 l/m 2,1 km/h N 11,0 C 21,5 C 7,2 km/h
18.09.2015 12:00 22,6 C 50 % 1016,1 hPa 0,0 l/m 1,5 km/h N 11,7 C 22,6 C 5,9 km/h
18.09.2015 13:00 23,2 C 48 % 1015,3 hPa 0,0 l/m 2,1 km/h N 11,7 C 23,2 C 7,6 km/h
18.09.2015 14:00 23,8 C 46 % 1015,0 hPa 0,0 l/m 1,5 km/h N 11,6 C 23,8 C 12,1 km/h
18.09.2015 15:00 24,0 C 46 % 1014,8 hPa 0,0 l/m 2,7 km/h N 11,6 C 24,0 C 11,7 km/h
18.09.2015 16:00 23,9 C 47 % 1014,9 hPa 0,0 l/m 2,8 km/h N 11,9 C 23,9 C 10,9 km/h
18.09.2015 17:00 22,8 C 50 % 1015,5 hPa 0,0 l/m 5,8 km/h N 11,9 C 22,7 C 16,9 km/h
18.09.2015 18:00 19,2 C 66 % 1017,0 hPa 0,0 l/m 6,3 km/h N 12,6 C 18,9 C 20,5 km/h
18.09.2015 19:00 17,2 C 73 % 1017,7 hPa 0,0 l/m 3,2 km/h N 12,2 C 17,2 C 12,1 km/h
18.09.2015 20:00 16,7 C 76 % 1018,4 hPa 0,0 l/m 4,5 km/h N 12,4 C 16,7 C 17,3 km/h
18.09.2015 21:00 16,4 C 76 % 1018,6 hPa 0,0 l/m 2,1 km/h N 12,1 C 16,4 C 14,5 km/h
18.09.2015 22:00 16,3 C 75 % 1018,8 hPa 0,0 l/m 0,6 km/h N 11,9 C 16,3 C 6,8 km/h
18.09.2015 23:00 16,5 C 74 % 1019,0 hPa 0,0 l/m 1,3 km/h N 11,8 C 16,5 C 9,2 km/h
19.09.2015 00:00 16,3 C 75 % 1019,3 hPa 0,0 l/m 1,2 km/h N 11,9 C 16,3 C 9,2 km/h
19.09.2015 01:00 16,4 C 74 % 1019,4 hPa 0,0 l/m 3,2 km/h N 11,7 C 16,4 C 12,5 km/h
19.09.2015 02:00 16,5 C 73 % 1019,3 hPa 0,0 l/m 3,4 km/h N 11,5 C 16,5 C 13,3 km/h
19.09.2015 03:00 16,4 C 72 % 1019,6 hPa 0,0 l/m 5,5 km/h N 11,3 C 16,4 C 17,7 km/h
19.09.2015 04:00 16,3 C 71 % 1019,6 hPa 0,0 l/m 3,5 km/h N 11,1 C 16,3 C 14,5 km/h
19.09.2015 05:00 15,6 C 73 % 1019,8 hPa 0,0 l/m 1,3 km/h N 10,9 C 15,6 C 9,7 km/h
19.09.2015 06:00 14,8 C 76 % 1020,2 hPa 0,0 l/m 0,6 km/h N 10,5 C 14,8 C 4,4 km/h
19.09.2015 07:00 14,7 C 77 % 1020,3 hPa 0,0 l/m 0,6 km/h N 10,7 C 14,7 C 6,4 km/h
19.09.2015 08:00 16,2 C 74 % 1020,4 hPa 0,0 l/m 4,1 km/h N 11,5 C 16,2 C 15,7 km/h
19.09.2015 09:00 17,5 C 69 % 1020,3 hPa 0,0 l/m 7,1 km/h N 11,7 C 17,2 C 19,3 km/h
19.09.2015 10:00 18,5 C 68 % 1020,4 hPa 0,0 l/m 6,4 km/h N 12,6 C 18,5 C 18,1 km/h
19.09.2015 11:00 19,3 C 66 % 1020,4 hPa 0,0 l/m 5,7 km/h N 12,8 C 19,2 C 16,9 km/h
19.09.2015 12:00 19,4 C 66 % 1020,1 hPa 0,0 l/m 6,9 km/h N 12,8 C 19,2 C 18,5 km/h
19.09.2015 13:00 20,6 C 58 % 1019,4 hPa 0,0 l/m 4,7 km/h N 12,0 C 20,6 C 14,1 km/h
19.09.2015 14:00 21,1 C 57 % 1018,8 hPa 0,0 l/m 4,1 km/h N 12,3 C 21,1 C 13,3 km/h
19.09.2015 15:00 21,3 C 56 % 1018,1 hPa 0,0 l/m 3,9 km/h N 12,2 C 21,3 C 15,7 km/h
19.09.2015 16:00 21,3 C 58 % 1017,9 hPa 0,0 l/m 2,1 km/h N 12,5 C 21,3 C 10,9 km/h
19.09.2015 17:00 21,1 C 58 % 1017,5 hPa 0,0 l/m 1,3 km/h N 12,5 C 21,1 C 8,0 km/h
19.09.2015 18:00 20,7 C 60 % 1017,6 hPa 0,0 l/m 1,5 km/h N 12,5 C 20,7 C 12,1 km/h
19.09.2015 19:00 20,0 C 63 % 1017,4 hPa 0,0 l/m 3,2 km/h N 12,7 C 20,0 C 10,9 km/h
19.09.2015 20:00 19,2 C 66 % 1017,3 hPa 0,0 l/m 3,4 km/h N 12,7 C 19,2 C 12,1 km/h
19.09.2015 21:00 18,4 C 72 % 1017,5 hPa 0,3 l/m 5,1 km/h N 13,2 C 18,4 C 16,1 km/h
19.09.2015 22:00 16,5 C 80 % 1018,0 hPa 1,8 l/m 5,2 km/h N 13,0 C 16,3 C 17,3 km/h
19.09.2015 23:00 15,8 C 81 % 1018,4 hPa 1,0 l/m 1,6 km/h N 12,6 C 15,8 C 6,8 km/h
20.09.2015 00:00 15,6 C 81 % 1018,4 hPa 2,1 l/m 0,0 km/h N 12,4 C 15,6 C 0,8 km/h
20.09.2015 01:00 15,3 C 81 % 1017,4 hPa 1,0 l/m 1,2 km/h N 12,1 C 15,3 C 6,8 km/h
20.09.2015 02:00 15,2 C 81 % 1017,0 hPa 0,0 l/m 3,4 km/h N 12,0 C 15,2 C 13,3 km/h
20.09.2015 03:00 15,4 C 82 % 1016,6 hPa 0,0 l/m 6,1 km/h N 12,2 C 14,9 C 19,3 km/h
20.09.2015 04:00 15,4 C 80 % 1016,5 hPa 0,0 l/m 10,3 km/h N 11,9 C 13,5 C 24,5 km/h
20.09.2015 05:00 15,3 C 78 % 1016,8 hPa 0,0 l/m 9,3 km/h N 11,5 C 13,7 C 24,1 km/h
20.09.2015 06:00 15,3 C 77 % 1016,9 hPa 0,0 l/m 8,4 km/h N 11,2 C 14,2 C 23,3 km/h
20.09.2015 07:00 15,3 C 77 % 1017,5 hPa 0,0 l/m 6,9 km/h N 11,1 C 15,0 C 22,1 km/h
20.09.2015 08:00 15,8 C 75 % 1017,8 hPa 0,0 l/m 13,5 km/h N 11,4 C 12,7 C 31,4 km/h
20.09.2015 09:00 16,4 C 74 % 1018,0 hPa 0,0 l/m 13,7 km/h N 11,7 C 13,3 C 31,8 km/h
20.09.2015 10:00 16,9 C 73 % 1018,4 hPa 0,0 l/m 13,0 km/h N 12,0 C 14,1 C 27,8 km/h
20.09.2015 11:00 17,5 C 70 % 1018,4 hPa 0,0 l/m 12,9 km/h N 11,9 C 14,9 C 28,2 km/h
20.09.2015 12:00 18,2 C 65 % 1017,9 hPa 0,0 l/m 11,3 km/h N 11,4 C 16,2 C 24,9 km/h
20.09.2015 13:00 18,5 C 60 % 1017,6 hPa 0,0 l/m 12,7 km/h N 10,5 C 16,1 C 27,4 km/h
20.09.2015 14:00 18,9 C 57 % 1017,7 hPa 0,0 l/m 13,1 km/h N 10,2 C 16,4 C 29,8 km/h
20.09.2015 15:00 18,7 C 60 % 1017,9 hPa 0,0 l/m 9,8 km/h N 10,7 C 17,3 C 24,1 km/h
20.09.2015 16:00 18,2 C 61 % 1018,0 hPa 0,0 l/m 11,2 km/h N 10,5 C 16,3 C 27,4 km/h
20.09.2015 17:00 17,5 C 61 % 1018,2 hPa 0,0 l/m 10,6 km/h N 9,9 C 15,7 C 24,1 km/h
20.09.2015 18:00 17,1 C 66 % 1018,1 hPa 0,0 l/m 7,8 km/h N 10,6 C 16,4 C 22,9 km/h
20.09.2015 19:00 15,5 C 70 % 1018,6 hPa 0,0 l/m 6,1 km/h N 10,0 C 15,1 C 17,7 km/h
20.09.2015 20:00 14,9 C 67 % 1019,0 hPa 0,0 l/m 1,5 km/h N 8,9 C 14,9 C 10,5 km/h
20.09.2015 21:00 14,6 C 66 % 1019,6 hPa 0,0 l/m 1,9 km/h N 8,2 C 14,6 C 10,5 km/h
20.09.2015 22:00 14,9 C 64 % 1019,7 hPa 0,0 l/m 3,4 km/h N 8,2 C 14,9 C 13,7 km/h
20.09.2015 23:00 14,3 C 66 % 1019,7 hPa 0,0 l/m 3,7 km/h N 8,0 C 14,3 C 15,7 km/h
Min-Datum _ 16.09.15 17.09.15 17.09.15 - 14.09.15 - 20.09.15 20.09.15 14.09.15
_ Min-Zeit 07:15 15:00 14:15 - 04:30 - 23:30 08:15 06:00
Minimum _ 11,9 C 30 % 1001,0 hPa - 0,0 km/h - 7,8 C 11,8 C 0,0 km/h
Max-Datum _ 17.09.15 15.09.15 19.09.15 20.09.15 20.09.15 - 17.09.15 17.09.15 20.09.15
_ Max-Zeit 15:15 00:45 08:30 00:00 09:30 - 18:15 15:15 09:30
Maximum _ 34,6 C 82 % 1020,5 hPa 2,1 l/m 16,5 km/h
N
- 17,8 C 34,6 C 40,2 km/h
N
Durchschnitt _ 18,9 C 68 % 1011,4 hPa #7,5 l/m 3,0 km/h N 12,6 C 18,7 C 10,8 km/h